createdAt,value
2023-10-22T00:01:50.238Z,42.9
2023-10-22T00:09:22.690Z,43.0
2023-10-22T00:16:55.150Z,43.0
2023-10-22T00:24:27.579Z,43.0
2023-10-22T00:32:00.014Z,43.0
2023-10-22T00:39:32.449Z,43.0
2023-10-22T00:47:04.884Z,43.1
2023-10-22T00:54:37.624Z,43.1
2023-10-22T01:02:10.193Z,43.1
2023-10-22T01:09:42.714Z,43.2
2023-10-22T01:17:15.153Z,43.2
2023-10-22T01:24:47.614Z,43.2
2023-10-22T01:32:20.032Z,43.3
2023-10-22T01:39:52.593Z,43.3
2023-10-22T01:47:25.224Z,43.4
2023-10-22T01:54:57.662Z,43.4
2023-10-22T02:02:30.197Z,43.5
2023-10-22T02:10:02.690Z,43.5
2023-10-22T02:17:35.182Z,43.5
2023-10-22T02:25:07.707Z,43.6
2023-10-22T02:32:40.192Z,43.6
2023-10-22T02:40:12.665Z,43.6
2023-10-22T02:47:45.188Z,43.6
2023-10-22T02:55:17.675Z,43.7
2023-10-22T03:02:50.257Z,43.7
2023-10-22T03:10:22.772Z,43.6
2023-10-22T03:17:55.295Z,43.6
2023-10-22T03:25:27.780Z,43.5
2023-10-22T03:33:00.273Z,43.4
2023-10-22T03:40:32.772Z,43.4
2023-10-22T03:48:05.334Z,43.3
2023-10-22T03:55:37.817Z,43.3
2023-10-22T04:03:10.421Z,43.3
2023-10-22T04:10:42.972Z,43.3
2023-10-22T04:18:15.469Z,43.3
2023-10-22T04:25:48.004Z,43.3
2023-10-22T04:33:20.482Z,43.3
2023-10-22T04:40:52.952Z,43.3
2023-10-22T04:48:25.562Z,43.3
2023-10-22T04:55:58.019Z,43.3
2023-10-22T05:03:30.545Z,43.3
2023-10-22T05:11:03.067Z,43.4
2023-10-22T05:18:35.642Z,43.4
2023-10-22T05:26:08.170Z,43.4
2023-10-22T05:33:40.653Z,43.4
2023-10-22T05:41:13.165Z,43.4
2023-10-22T05:48:45.695Z,43.4
2023-10-22T05:56:18.206Z,43.4
2023-10-22T06:03:50.708Z,43.5
2023-10-22T06:11:23.192Z,43.5
2023-10-22T06:18:55.660Z,43.6
2023-10-22T06:26:28.092Z,43.7
2023-10-22T06:34:00.668Z,43.8
2023-10-22T06:41:33.171Z,44.0
2023-10-22T06:49:05.632Z,44.2
2023-10-22T06:56:38.068Z,44.1
2023-10-22T07:04:10.670Z,44.6
2023-10-22T07:11:43.201Z,44.1
2023-10-22T07:19:15.644Z,44.1
2023-10-22T07:26:48.101Z,44.1
2023-10-22T07:34:20.543Z,44.1
2023-10-22T07:41:52.975Z,44.1
2023-10-22T07:49:25.404Z,44.1
2023-10-22T07:56:57.848Z,44.0
2023-10-22T08:04:30.357Z,44.1
2023-10-22T08:12:04.897Z,44.0
2023-10-22T08:19:39.371Z,44.0
2023-10-22T08:27:11.990Z,44.1
2023-10-22T08:34:44.464Z,44.1
2023-10-22T08:42:16.961Z,44.1
2023-10-22T08:49:49.363Z,44.1
2023-10-22T08:57:21.836Z,44.1
2023-10-22T09:04:54.313Z,44.1
2023-10-22T09:12:26.784Z,44.0
2023-10-22T09:19:59.278Z,44.0
2023-10-22T09:27:31.753Z,44.0
2023-10-22T09:35:04.215Z,44.0
2023-10-22T09:42:36.688Z,44.1
2023-10-22T09:50:09.146Z,44.0
2023-10-22T09:57:41.610Z,44.0
2023-10-22T10:05:14.053Z,44.0
2023-10-22T10:12:46.498Z,44.0
2023-10-22T10:20:18.957Z,44.0
2023-10-22T10:27:51.383Z,44.0
2023-10-22T10:35:23.915Z,44.0
2023-10-22T10:42:56.358Z,44.0
2023-10-22T10:50:28.801Z,44.0
2023-10-22T10:58:01.265Z,44.0
2023-10-22T11:05:33.727Z,44.0
2023-10-22T11:13:06.170Z,44.0
2023-10-22T11:20:38.599Z,44.0
2023-10-22T11:28:11.038Z,44.0
2023-10-22T11:35:43.477Z,44.0
2023-10-22T11:43:15.943Z,44.0
2023-10-22T11:50:48.372Z,44.0
2023-10-22T11:58:20.830Z,44.0
2023-10-22T12:05:53.272Z,44.0
2023-10-22T12:13:25.713Z,44.0
2023-10-22T12:20:58.160Z,44.0
2023-10-22T12:28:30.654Z,43.9
2023-10-22T12:36:03.080Z,43.9
2023-10-22T12:43:35.510Z,43.9
2023-10-22T12:51:07.987Z,43.9
2023-10-22T12:58:40.459Z,43.9
2023-10-22T13:06:12.937Z,43.9
2023-10-22T13:13:45.392Z,43.9
2023-10-22T13:21:17.850Z,43.9
2023-10-22T13:28:50.303Z,43.9
2023-10-22T13:36:22.748Z,43.9
2023-10-22T13:43:55.258Z,43.9
2023-10-22T13:51:27.746Z,43.9
2023-10-22T13:59:00.216Z,43.9
2023-10-22T14:06:32.723Z,43.9
2023-10-22T14:14:05.232Z,43.9
2023-10-22T14:21:37.727Z,43.9
2023-10-22T14:29:10.173Z,43.9
2023-10-22T14:36:42.600Z,43.9
2023-10-22T14:44:15.070Z,43.9
2023-10-22T14:51:47.497Z,43.9
2023-10-22T14:59:19.950Z,43.9
2023-10-22T15:06:52.364Z,43.8
2023-10-22T15:14:24.817Z,43.9
2023-10-22T15:21:57.253Z,43.8
2023-10-22T15:29:29.651Z,43.8
2023-10-22T15:37:02.069Z,43.8
2023-10-22T15:44:34.483Z,43.8
2023-10-22T15:52:06.913Z,43.8
2023-10-22T15:59:39.538Z,43.8
2023-10-22T16:07:12.195Z,43.8
2023-10-22T16:14:44.611Z,43.8
2023-10-22T16:22:17.071Z,43.8
2023-10-22T16:29:49.516Z,43.8
2023-10-22T16:37:21.939Z,43.8
2023-10-22T16:44:54.392Z,43.7
2023-10-22T16:52:26.829Z,43.8
2023-10-22T16:59:59.276Z,43.7
2023-10-22T17:07:33.811Z,43.8
2023-10-22T17:15:07.778Z,43.7
2023-10-22T17:22:40.303Z,43.7
2023-10-22T17:30:12.805Z,43.7
2023-10-22T17:37:45.303Z,43.8
2023-10-22T17:45:17.759Z,43.8
2023-10-22T17:52:50.202Z,43.8
2023-10-22T18:00:22.692Z,43.8
2023-10-22T18:07:55.174Z,43.8
2023-10-22T18:15:27.842Z,43.8
2023-10-22T18:23:00.297Z,43.8
2023-10-22T18:30:32.794Z,43.8
2023-10-22T18:38:05.425Z,43.9
2023-10-22T18:45:37.881Z,43.9
2023-10-22T18:53:10.339Z,43.9
2023-10-22T19:00:42.829Z,43.9
2023-10-22T19:08:15.396Z,43.9
2023-10-22T19:15:47.829Z,43.9
2023-10-22T19:23:20.302Z,44.0
2023-10-22T19:30:52.776Z,43.9
2023-10-22T19:38:25.235Z,44.0
2023-10-22T19:45:57.731Z,44.0
2023-10-22T19:53:30.306Z,44.0
2023-10-22T20:01:02.751Z,44.0
2023-10-22T20:08:35.218Z,44.1
2023-10-22T20:16:07.683Z,44.1
2023-10-22T20:23:40.123Z,44.1
2023-10-22T20:31:12.637Z,44.1
2023-10-22T20:38:45.156Z,44.1
2023-10-22T20:46:17.626Z,44.2
2023-10-22T20:53:50.165Z,44.2
2023-10-22T21:01:22.873Z,44.3
2023-10-22T21:08:55.373Z,44.3
2023-10-22T21:16:27.832Z,44.3
2023-10-22T21:24:02.123Z,44.8
2023-10-22T21:31:34.924Z,44.3
2023-10-22T21:39:07.361Z,44.3
2023-10-22T21:46:39.856Z,44.3
2023-10-22T21:54:12.334Z,44.3
2023-10-22T22:01:44.795Z,44.4
2023-10-22T22:09:17.373Z,44.4
2023-10-22T22:16:49.806Z,44.4
2023-10-22T22:24:22.247Z,44.4
2023-10-22T22:31:54.720Z,44.4
2023-10-22T22:39:27.266Z,44.4
2023-10-22T22:46:59.723Z,44.4
2023-10-22T22:54:32.188Z,44.4
2023-10-22T23:02:04.651Z,44.4
2023-10-22T23:09:37.127Z,44.4
2023-10-22T23:17:09.577Z,44.4
2023-10-22T23:24:42.009Z,44.4
2023-10-22T23:32:14.454Z,44.3
2023-10-22T23:39:46.932Z,44.4
2023-10-22T23:47:19.373Z,44.4
2023-10-22T23:54:51.832Z,44.4
